Time,TemperatureF,DewpointF,PressureIn,WindDirection,WindDirectionDegrees,WindSpeedMPH,WindSpeedGustMPH,Humidity,HourlyPrecipIn,Conditions,Clouds,dailyrainin,SoftwareType,DateUTC
2013-04-16 00:02:00,65.2,61.2,30.14,NE,45,0.0,0.0,87,0.00,,,0.00,WUHU216HW,2013-04-16 04:02:00,
2013-04-16 00:07:00,65.0,61.0,30.14,NE,45,0.0,0.0,87,0.00,,,0.00,WUHU216HW,2013-04-16 04:07:00,
2013-04-16 00:12:00,64.6,60.7,30.14,NE,45,0.0,0.7,87,0.00,,,0.00,WUHU216HW,2013-04-16 04:12:00,
2013-04-16 00:17:00,64.6,60.7,30.14,NE,45,0.4,0.7,87,0.00,,,0.00,WUHU216HW,2013-04-16 04:17:00,
2013-04-16 00:22:00,64.4,60.6,30.14,NE,45,0.0,0.4,87,0.00,,,0.00,WUHU216HW,2013-04-16 04:22:00,
2013-04-16 00:27:00,64.4,60.6,30.14,NE,45,0.0,0.0,87,0.00,,,0.00,WUHU216HW,2013-04-16 04:27:00,
2013-04-16 00:32:00,64.4,60.6,30.14,NE,45,0.0,0.0,87,0.00,,,0.00,WUHU216HW,2013-04-16 04:32:00,
2013-04-16 00:37:00,64.4,60.6,30.14,NE,45,0.0,0.0,87,0.00,,,0.00,WUHU216HW,2013-04-16 04:37:00,
2013-04-16 00:42:00,64.3,60.4,30.14,NE,45,0.0,0.0,87,0.00,,,0.00,WUHU216HW,2013-04-16 04:42:00,
2013-04-16 00:47:00,64.1,60.5,30.14,NE,45,0.0,0.0,88,0.00,,,0.00,WUHU216HW,2013-04-16 04:47:00,
2013-04-16 00:52:00,63.7,60.1,30.14,NE,45,0.0,0.0,88,0.00,,,0.00,WUHU216HW,2013-04-16 04:52:00,
2013-04-16 00:57:00,63.7,60.1,30.13,NE,45,0.4,0.4,88,0.00,,,0.00,WUHU216HW,2013-04-16 04:57:00,
2013-04-16 01:02:00,63.4,59.8,30.13,NE,45,0.4,1.1,88,0.00,,,0.00,WUHU216HW,2013-04-16 05:02:00,
2013-04-16 01:07:00,63.2,59.6,30.13,NE,45,0.0,1.1,88,0.00,,,0.00,WUHU216HW,2013-04-16 05:07:00,
2013-04-16 01:12:00,63.2,59.9,30.13,NE,45,0.0,1.1,89,0.00,,,0.00,WUHU216HW,2013-04-16 05:12:00,
2013-04-16 01:17:00,63.4,60.1,30.13,NE,45,0.0,0.7,89,0.00,,,0.00,WUHU216HW,2013-04-16 05:17:00,
2013-04-16 01:22:00,63.4,60.1,30.13,NE,45,0.0,0.7,89,0.00,,,0.00,WUHU216HW,2013-04-16 05:22:00,
2013-04-16 01:27:00,63.4,60.1,30.13,NE,45,0.0,0.0,89,0.00,,,0.00,WUHU216HW,2013-04-16 05:27:00,
2013-04-16 01:32:00,63.4,60.1,30.13,NE,45,0.4,0.4,89,0.00,,,0.00,WUHU216HW,2013-04-16 05:32:00,
2013-04-16 01:38:00,63.4,60.5,30.13,NE,45,0.7,1.1,90,0.00,,,0.00,WUHU216HW,2013-04-16 05:38:00,
2013-04-16 01:43:00,63.4,60.5,30.13,NNE,23,0.4,1.1,90,0.00,,,0.00,WUHU216HW,2013-04-16 05:43:00,
2013-04-16 01:48:00,63.4,60.5,30.13,NNE,23,1.1,1.1,90,0.00,,,0.00,WUHU216HW,2013-04-16 05:48:00,
2013-04-16 01:53:00,63.4,60.5,30.13,NNE,23,0.2,1.1,90,0.00,,,0.00,WUHU216HW,2013-04-16 05:53:00,
2013-04-16 01:58:00,63.2,60.3,30.13,NE,45,0.0,2.5,90,0.00,,,0.00,WUHU216HW,2013-04-16 05:58:00,
2013-04-16 02:03:00,63.2,60.3,30.13,NE,45,1.1,2.5,90,0.00,,,0.00,WUHU216HW,2013-04-16 06:03:00,
2013-04-16 02:08:00,63.0,60.1,30.13,NE,45,0.4,1.1,90,0.00,,,0.00,WUHU216HW,2013-04-16 06:08:00,
2013-04-16 02:13:00,63.0,60.1,30.13,NE,45,0.0,0.9,90,0.00,,,0.00,WUHU216HW,2013-04-16 06:13:00,
2013-04-16 02:18:00,63.0,60.1,30.12,NE,45,0.0,0.4,90,0.00,,,0.00,WUHU216HW,2013-04-16 06:18:00,
2013-04-16 02:23:00,62.8,59.9,30.12,NE,45,0.7,0.9,90,0.00,,,0.00,WUHU216HW,2013-04-16 06:23:00,
2013-04-16 02:28:00,62.8,59.9,30.12,NE,45,0.4,1.8,90,0.00,,,0.00,WUHU216HW,2013-04-16 06:28:00,
2013-04-16 02:33:00,62.6,59.8,30.12,NE,45,1.1,1.8,90,0.00,,,0.00,WUHU216HW,2013-04-16 06:33:00,
2013-04-16 02:38:00,62.6,59.8,30.12,NE,45,0.7,1.3,90,0.00,,,0.00,WUHU216HW,2013-04-16 06:38:00,
2013-04-16 02:43:00,62.5,59.6,30.12,NE,45,1.1,1.3,90,0.00,,,0.00,WUHU216HW,2013-04-16 06:43:00,
2013-04-16 02:48:00,62.5,59.6,30.12,NNE,23,0.0,1.3,90,0.00,,,0.00,WUHU216HW,2013-04-16 06:48:00,
2013-04-16 02:53:00,62.5,59.6,30.12,NW,315,0.0,0.7,90,0.00,,,0.00,WUHU216HW,2013-04-16 06:53:00,
2013-04-16 02:58:00,62.5,59.6,30.11,NW,315,0.0,0.0,90,0.00,,,0.00,WUHU216HW,2013-04-16 06:58:00,
2013-04-16 03:03:00,62.3,59.4,30.11,NE,45,0.7,0.9,90,0.00,,,0.00,WUHU216HW,2013-04-16 07:03:00,
2013-04-16 03:08:00,62.3,59.4,30.12,NE,45,0.0,1.1,90,0.00,,,0.00,WUHU216HW,2013-04-16 07:08:00,
2013-04-16 03:13:00,62.3,59.4,30.12,NE,45,0.0,1.1,90,0.00,,,0.00,WUHU216HW,2013-04-16 07:13:00,
2013-04-16 03:18:00,62.3,59.4,30.12,NNE,23,0.0,0.7,90,0.00,,,0.00,WUHU216HW,2013-04-16 07:18:00,
2013-04-16 03:23:00,62.3,59.4,30.12,NNE,23,0.2,0.7,90,0.00,,,0.00,WUHU216HW,2013-04-16 07:23:00,
2013-04-16 03:28:00,62.3,59.4,30.12,NNE,23,0.0,0.4,90,0.00,,,0.00,WUHU216HW,2013-04-16 07:28:00,
2013-04-16 03:33:00,62.1,59.5,30.12,NNE,23,0.0,0.4,91,0.00,,,0.00,WUHU216HW,2013-04-16 07:33:00,
2013-04-16 03:38:00,62.1,59.5,30.12,NNE,23,0.0,0.0,91,0.00,,,0.00,WUHU216HW,2013-04-16 07:38:00,
2013-04-16 03:43:00,62.1,59.5,30.12,NE,45,2.0,2.0,91,0.00,,,0.00,WUHU216HW,2013-04-16 07:43:00,
2013-04-16 03:48:00,61.9,59.3,30.12,NE,45,0.2,2.0,91,0.00,,,0.00,WUHU216HW,2013-04-16 07:48:00,
2013-04-16 03:53:00,61.9,59.3,30.12,NE,45,1.1,1.6,91,0.00,,,0.00,WUHU216HW,2013-04-16 07:53:00,
2013-04-16 03:58:00,61.9,59.3,30.12,NE,45,0.9,1.1,91,0.00,,,0.00,WUHU216HW,2013-04-16 07:58:00,
2013-04-16 04:03:00,61.9,59.3,30.12,NNE,23,0.7,1.1,91,0.00,,,0.00,WUHU216HW,2013-04-16 08:03:00,
2013-04-16 04:08:00,61.7,59.1,30.12,NNE,23,0.0,1.1,91,0.00,,,0.00,WUHU216HW,2013-04-16 08:08:00,
2013-04-16 04:13:00,61.7,59.1,30.12,NNE,23,0.2,0.9,91,0.00,,,0.00,WUHU216HW,2013-04-16 08:13:00,
2013-04-16 04:18:00,61.7,59.1,30.12,NNE,23,0.0,0.4,91,0.00,,,0.00,WUHU216HW,2013-04-16 08:18:00,
2013-04-16 04:23:00,61.7,59.1,30.12,NNE,23,0.0,0.4,91,0.00,,,0.00,WUHU216HW,2013-04-16 08:23:00,
2013-04-16 04:28:00,61.6,59.0,30.12,NNE,23,0.4,0.4,91,0.00,,,0.00,WUHU216HW,2013-04-16 08:28:00,
2013-04-16 04:33:00,61.6,59.0,30.12,NE,45,0.4,0.9,91,0.00,,,0.00,WUHU216HW,2013-04-16 08:33:00,
2013-04-16 04:38:00,61.6,59.0,30.12,NE,45,0.0,0.9,91,0.00,,,0.00,WUHU216HW,2013-04-16 08:38:00,
2013-04-16 04:43:00,61.6,59.2,30.12,NE,45,1.1,1.1,92,0.00,,,0.00,WUHU216HW,2013-04-16 08:43:00,
2013-04-16 04:48:00,61.4,58.8,30.12,NNE,23,0.4,1.1,91,0.00,,,0.00,WUHU216HW,2013-04-16 08:48:00,
2013-04-16 04:53:00,61.4,59.0,30.13,North,0,0.0,1.1,92,0.00,,,0.00,WUHU216HW,2013-04-16 08:53:00,
2013-04-16 04:58:00,61.4,59.0,30.13,North,0,0.4,0.4,92,0.00,,,0.00,WUHU216HW,2013-04-16 08:58:00,
2013-04-16 05:03:00,61.4,59.0,30.13,North,0,0.0,0.4,92,0.00,,,0.00,WUHU216HW,2013-04-16 09:03:00,
2013-04-16 05:08:00,61.4,59.0,30.13,North,0,0.0,0.4,92,0.00,,,0.00,WUHU216HW,2013-04-16 09:08:00,
2013-04-16 05:13:00,61.4,59.0,30.13,NNE,23,0.0,0.4,92,0.00,,,0.00,WUHU216HW,2013-04-16 09:13:00,
2013-04-16 05:18:00,61.2,58.9,30.13,NNE,23,0.0,0.9,92,0.00,,,0.00,WUHU216HW,2013-04-16 09:18:00,
2013-04-16 05:23:00,61.4,59.0,30.13,NNE,23,0.0,0.9,92,0.00,,,0.00,WUHU216HW,2013-04-16 09:23:00,
2013-04-16 05:28:00,61.4,59.0,30.13,NNE,23,0.7,0.7,92,0.00,,,0.00,WUHU216HW,2013-04-16 09:28:00,
2013-04-16 05:33:00,61.4,59.0,30.13,NE,45,0.7,0.7,92,0.00,,,0.00,WUHU216HW,2013-04-16 09:33:00,
2013-04-16 05:38:00,61.6,59.2,30.13,NNE,23,0.0,0.7,92,0.00,,,0.00,WUHU216HW,2013-04-16 09:38:00,
2013-04-16 05:43:00,61.6,59.2,30.13,NNE,23,0.4,1.3,92,0.00,,,0.00,WUHU216HW,2013-04-16 09:43:00,
2013-04-16 05:48:00,61.6,59.6,30.13,NNE,23,0.7,1.3,93,0.00,,,0.00,WUHU216HW,2013-04-16 09:48:00,
2013-04-16 05:53:00,61.6,59.6,30.14,North,0,1.1,1.3,93,0.00,,,0.00,WUHU216HW,2013-04-16 09:53:00,
2013-04-16 05:58:00,61.6,59.6,30.14,NE,45,0.9,1.3,93,0.00,,,0.00,WUHU216HW,2013-04-16 09:58:00,
2013-04-16 06:03:00,61.6,59.6,30.14,NNE,23,0.7,1.3,93,0.00,,,0.00,WUHU216HW,2013-04-16 10:03:00,
2013-04-16 06:08:00,61.6,59.6,30.14,NNE,23,0.4,0.9,93,0.00,,,0.00,WUHU216HW,2013-04-16 10:08:00,
2013-04-16 06:13:00,61.4,59.4,30.14,NNE,23,0.0,0.7,93,0.00,,,0.00,WUHU216HW,2013-04-16 10:13:00,
2013-04-16 06:18:00,61.4,59.4,30.14,NNE,23,0.7,0.9,93,0.00,,,0.00,WUHU216HW,2013-04-16 10:18:00,
2013-04-16 06:23:00,61.6,59.6,30.14,NE,45,1.1,1.1,93,0.00,,,0.00,WUHU216HW,2013-04-16 10:23:00,
2013-04-16 06:28:00,61.6,59.6,30.15,NE,45,0.0,1.1,93,0.00,,,0.00,WUHU216HW,2013-04-16 10:28:00,
2013-04-16 06:33:00,61.6,59.6,30.14,NE,45,1.1,1.1,93,0.00,,,0.00,WUHU216HW,2013-04-16 10:33:00,
2013-04-16 06:38:00,61.6,59.6,30.15,NE,45,1.3,1.3,93,0.00,,,0.00,WUHU216HW,2013-04-16 10:38:00,
2013-04-16 06:43:00,61.6,59.6,30.15,NE,45,0.0,1.6,93,0.00,,,0.00,WUHU216HW,2013-04-16 10:43:00,
2013-04-16 06:48:00,61.6,59.6,30.15,NE,45,0.9,1.6,93,0.00,,,0.00,WUHU216HW,2013-04-16 10:48:00,
2013-04-16 06:53:00,61.6,59.6,30.15,NE,45,1.1,1.3,93,0.00,,,0.00,WUHU216HW,2013-04-16 10:53:00,
2013-04-16 06:58:00,61.6,59.6,30.15,NE,45,1.1,1.6,93,0.00,,,0.00,WUHU216HW,2013-04-16 10:58:00,
2013-04-16 07:03:00,61.6,59.6,30.15,NE,45,0.9,1.6,93,0.00,,,0.00,WUHU216HW,2013-04-16 11:03:00,
2013-04-16 07:08:00,61.6,59.6,30.16,NE,45,0.2,1.1,93,0.00,,,0.00,WUHU216HW,2013-04-16 11:08:00,
2013-04-16 07:13:00,61.7,59.8,30.15,NE,45,1.3,1.3,93,0.00,,,0.00,WUHU216HW,2013-04-16 11:13:00,
2013-04-16 07:18:00,61.7,59.8,30.16,NE,45,1.1,1.3,93,0.00,,,0.00,WUHU216HW,2013-04-16 11:18:00,
2013-04-16 07:23:00,61.7,59.8,30.16,NE,45,0.4,1.1,93,0.00,,,0.00,WUHU216HW,2013-04-16 11:23:00,
2013-04-16 07:28:00,61.9,60.0,30.16,NE,45,0.0,0.9,93,0.00,,,0.00,WUHU216HW,2013-04-16 11:28:00,
2013-04-16 07:33:00,62.1,60.4,30.16,NE,45,0.0,0.4,94,0.00,,,0.00,WUHU216HW,2013-04-16 11:33:00,
2013-04-16 07:38:00,62.3,60.3,30.17,NE,45,0.4,0.4,93,0.00,,,0.00,WUHU216HW,2013-04-16 11:38:00,
2013-04-16 07:43:00,62.5,60.8,30.17,NE,45,0.2,0.7,94,0.00,,,0.00,WUHU216HW,2013-04-16 11:43:00,
2013-04-16 07:48:00,62.5,60.8,30.17,ENE,68,0.9,1.3,94,0.00,,,0.00,WUHU216HW,2013-04-16 11:48:00,
2013-04-16 07:53:00,62.6,60.9,30.17,NE,45,0.4,1.6,94,0.00,,,0.00,WUHU216HW,2013-04-16 11:53:00,
2013-04-16 07:58:00,62.8,61.1,30.17,NE,45,0.9,1.6,94,0.00,,,0.00,WUHU216HW,2013-04-16 11:58:00,
2013-04-16 08:03:00,63.0,61.3,30.18,NNE,23,0.0,0.9,94,0.00,,,0.00,WUHU216HW,2013-04-16 12:03:00,
2013-04-16 08:08:00,63.2,61.5,30.18,NNE,23,0.0,0.7,94,0.00,,,0.00,WUHU216HW,2013-04-16 12:08:00,
2013-04-16 08:13:00,63.4,61.7,30.18,NE,45,0.9,0.9,94,0.00,,,0.00,WUHU216HW,2013-04-16 12:13:00,
2013-04-16 08:18:00,63.7,62.0,30.18,NE,45,0.0,0.9,94,0.00,,,0.00,WUHU216HW,2013-04-16 12:18:00,
2013-04-16 08:23:00,63.9,62.2,30.18,NE,45,0.0,0.4,94,0.00,,,0.00,WUHU216HW,2013-04-16 12:23:00,
2013-04-16 08:28:00,64.1,62.4,30.18,NE,45,0.2,1.1,94,0.00,,,0.00,WUHU216HW,2013-04-16 12:28:00,
2013-04-16 08:33:00,64.4,62.5,30.18,SE,135,0.0,1.1,93,0.00,,,0.00,WUHU216HW,2013-04-16 12:33:00,
2013-04-16 08:38:00,64.8,62.7,30.18,SSE,158,1.6,1.6,93,0.00,,,0.00,WUHU216HW,2013-04-16 12:38:00,
2013-04-16 08:43:00,65.2,63.1,30.18,NE,45,0.0,1.6,93,0.00,,,0.00,WUHU216HW,2013-04-16 12:43:00,
2013-04-16 08:48:00,65.7,63.6,30.18,NE,45,0.2,1.3,93,0.00,,,0.00,WUHU216HW,2013-04-16 12:48:00,
2013-04-16 08:53:00,66.1,63.9,30.19,SE,135,0.7,1.8,93,0.00,,,0.00,WUHU216HW,2013-04-16 12:53:00,
2013-04-16 08:58:00,66.6,64.8,30.19,SE,135,0.9,1.8,94,0.00,,,0.00,WUHU216HW,2013-04-16 12:58:00,
2013-04-16 09:03:00,67.0,65.2,30.19,SSE,158,4.0,4.0,94,0.00,,,0.00,WUHU216HW,2013-04-16 13:03:00,
2013-04-16 09:08:00,67.5,65.3,30.19,ESE,113,1.1,4.0,93,0.00,,,0.00,WUHU216HW,2013-04-16 13:08:00,
2013-04-16 09:13:00,68.0,65.9,30.19,NE,45,1.6,3.4,93,0.00,,,0.00,WUHU216HW,2013-04-16 13:13:00,
2013-04-16 09:18:00,68.6,65.8,30.19,SSE,158,2.5,3.1,91,0.00,,,0.00,WUHU216HW,2013-04-16 13:18:00,
2013-04-16 09:23:00,68.9,66.2,30.19,ENE,68,0.7,3.8,91,0.00,,,0.00,WUHU216HW,2013-04-16 13:23:00,
2013-04-16 09:28:00,69.1,66.1,30.19,ESE,113,1.8,3.8,90,0.00,,,0.00,WUHU216HW,2013-04-16 13:28:00,
2013-04-16 09:33:00,69.3,66.2,30.19,SSE,158,3.8,3.8,90,0.00,,,0.00,WUHU216HW,2013-04-16 13:33:00,
2013-04-16 09:38:00,69.7,66.6,30.20,ESE,113,1.1,4.9,90,0.00,,,0.00,WUHU216HW,2013-04-16 13:38:00,
2013-04-16 09:43:00,70.6,66.8,30.19,NE,45,4.0,4.9,88,0.00,,,0.00,WUHU216HW,2013-04-16 13:43:00,
2013-04-16 09:48:00,71.3,67.2,30.19,NE,45,3.4,4.0,87,0.00,,,0.00,WUHU216HW,2013-04-16 13:48:00,
2013-04-16 09:53:00,71.6,67.2,30.19,ENE,68,2.2,4.7,86,0.00,,,0.00,WUHU216HW,2013-04-16 13:53:00,
2013-04-16 09:58:00,71.8,67.4,30.19,SE,135,0.9,4.7,86,0.00,,,0.00,WUHU216HW,2013-04-16 13:58:00,
2013-04-16 10:03:00,72.4,67.2,30.20,ENE,68,1.8,4.0,84,0.00,,,0.00,WUHU216HW,2013-04-16 14:03:00,
2013-04-16 10:08:00,73.8,68.7,30.19,East,90,2.5,4.0,84,0.00,,,0.00,WUHU216HW,2013-04-16 14:08:00,
2013-04-16 10:13:00,75.2,69.5,30.19,ENE,68,1.1,4.3,82,0.00,,,0.00,WUHU216HW,2013-04-16 14:13:00,
2013-04-16 10:18:00,74.9,68.1,30.19,SE,135,6.3,6.9,79,0.00,,,0.00,WUHU216HW,2013-04-16 14:18:00,
2013-04-16 10:23:00,74.5,68.0,30.20,NE,45,1.1,6.9,80,0.00,,,0.00,WUHU216HW,2013-04-16 14:23:00,
2013-04-16 10:28:00,74.7,67.9,30.20,NE,45,0.9,5.4,79,0.00,,,0.00,WUHU216HW,2013-04-16 14:28:00,
2013-04-16 10:33:00,75.1,67.8,30.20,South,180,4.7,5.4,78,0.00,,,0.00,WUHU216HW,2013-04-16 14:33:00,
2013-04-16 10:38:00,75.4,68.1,30.20,SE,135,2.2,6.9,78,0.00,,,0.00,WUHU216HW,2013-04-16 14:38:00,
2013-04-16 10:43:00,75.2,68.0,30.20,East,90,1.6,7.6,78,0.00,,,0.00,WUHU216HW,2013-04-16 14:43:00,
2013-04-16 10:48:00,76.0,68.7,30.20,SSE,158,5.6,7.6,78,0.00,,,0.00,WUHU216HW,2013-04-16 14:48:00,
2013-04-16 10:53:00,76.0,68.7,30.21,SSE,158,3.4,5.6,78,0.00,,,0.00,WUHU216HW,2013-04-16 14:53:00,
2013-04-16 10:58:00,76.7,68.1,30.21,NNE,23,2.2,4.0,75,0.00,,,0.00,WUHU216HW,2013-04-16 14:58:00,
2013-04-16 11:03:00,77.4,68.9,30.21,East,90,2.5,3.1,75,0.00,,,0.00,WUHU216HW,2013-04-16 15:03:00,
2013-04-16 11:08:00,77.0,68.1,30.21,ESE,113,2.2,2.9,74,0.00,,,0.00,WUHU216HW,2013-04-16 15:08:00,
2013-04-16 11:13:00,76.7,68.1,30.21,South,180,2.2,2.9,75,0.00,,,0.00,WUHU216HW,2013-04-16 15:13:00,
2013-04-16 11:18:00,76.9,68.3,30.21,SE,135,2.2,3.4,75,0.00,,,0.00,WUHU216HW,2013-04-16 15:18:00,
2013-04-16 11:23:00,77.0,68.5,30.21,East,90,1.8,5.8,75,0.00,,,0.00,WUHU216HW,2013-04-16 15:23:00,
2013-04-16 11:28:00,77.0,68.1,30.21,NNE,23,1.8,5.8,74,0.00,,,0.00,WUHU216HW,2013-04-16 15:28:00,
2013-04-16 11:33:00,77.8,68.4,30.21,East,90,1.8,4.7,73,0.00,,,0.00,WUHU216HW,2013-04-16 15:33:00,
2013-04-16 11:38:00,77.9,68.2,30.21,NE,45,2.9,4.7,72,0.00,,,0.00,WUHU216HW,2013-04-16 15:38:00,
2013-04-16 11:43:00,78.3,68.5,30.21,NNE,23,2.5,3.1,72,0.00,,,0.00,WUHU216HW,2013-04-16 15:43:00,
2013-04-16 11:48:00,78.8,67.3,30.21,South,180,3.4,6.3,68,0.00,,,0.00,WUHU216HW,2013-04-16 15:48:00,
2013-04-16 11:53:00,78.7,67.2,30.21,ENE,68,3.4,6.3,68,0.00,,,0.00,WUHU216HW,2013-04-16 15:53:00,
2013-04-16 11:58:00,79.0,68.0,30.21,SE,135,4.0,5.8,69,0.00,,,0.00,WUHU216HW,2013-04-16 15:58:00,
2013-04-16 12:03:00,79.6,67.1,30.21,ENE,68,1.3,5.6,66,0.00,,,0.00,WUHU216HW,2013-04-16 16:03:00,
2013-04-16 12:08:00,80.1,68.1,30.21,ESE,113,2.9,5.6,67,0.00,,,0.00,WUHU216HW,2013-04-16 16:08:00,
2013-04-16 12:13:00,80.8,68.0,30.21,South,180,2.2,6.3,65,0.00,,,0.00,WUHU216HW,2013-04-16 16:13:00,
2013-04-16 12:18:00,81.7,68.8,30.21,SSE,158,4.5,6.3,65,0.00,,,0.00,WUHU216HW,2013-04-16 16:18:00,
2013-04-16 12:23:00,82.4,68.5,30.21,SE,135,3.1,5.1,63,0.00,,,0.00,WUHU216HW,2013-04-16 16:23:00,
2013-04-16 12:28:00,82.4,67.1,30.21,North,0,3.4,5.1,60,0.00,,,0.00,WUHU216HW,2013-04-16 16:28:00,
2013-04-16 12:33:00,81.2,67.3,30.21,SSE,158,4.0,5.4,63,0.00,,,0.00,WUHU216HW,2013-04-16 16:33:00,
2013-04-16 12:38:00,81.9,68.5,30.20,SSE,158,1.1,5.4,64,0.00,,,0.00,WUHU216HW,2013-04-16 16:38:00,
2013-04-16 12:43:00,82.6,67.3,30.20,SSE,158,3.1,4.9,60,0.00,,,0.00,WUHU216HW,2013-04-16 16:43:00,
2013-04-16 12:48:00,82.1,67.2,30.20,ENE,68,1.6,6.9,61,0.00,,,0.00,WUHU216HW,2013-04-16 16:48:00,
2013-04-16 12:53:00,82.1,67.7,30.20,SE,135,3.6,6.9,62,0.00,,,0.00,WUHU216HW,2013-04-16 16:53:00,
2013-04-16 12:58:00,83.0,67.7,30.20,NE,45,4.3,4.3,60,0.00,,,0.00,WUHU216HW,2013-04-16 16:58:00,
2013-04-16 13:03:00,83.2,67.3,30.20,North,0,1.1,4.5,59,0.00,,,0.00,WUHU216HW,2013-04-16 17:03:00,
2013-04-16 13:08:00,82.4,65.6,30.20,ENE,68,0.4,4.5,57,0.00,,,0.00,WUHU216HW,2013-04-16 17:08:00,
2013-04-16 13:13:00,82.8,66.4,30.19,SE,135,3.4,3.4,58,0.00,,,0.00,WUHU216HW,2013-04-16 17:13:00,
2013-04-16 13:18:00,82.6,66.2,30.19,East,90,1.8,6.7,58,0.00,,,0.00,WUHU216HW,2013-04-16 17:18:00,
2013-04-16 13:23:00,81.7,65.4,30.19,ESE,113,0.9,6.7,58,0.00,,,0.00,WUHU216HW,2013-04-16 17:23:00,
2013-04-16 13:28:00,81.5,65.3,30.19,East,90,2.2,3.1,58,0.00,,,0.00,WUHU216HW,2013-04-16 17:28:00,
2013-04-16 13:33:00,81.7,66.5,30.19,ENE,68,0.9,2.2,60,0.00,,,0.00,WUHU216HW,2013-04-16 17:33:00,
2013-04-16 13:38:00,81.9,66.2,30.18,ENE,68,2.5,2.9,59,0.00,,,0.00,WUHU216HW,2013-04-16 17:38:00,
2013-04-16 13:43:00,81.4,65.2,30.18,NE,45,3.6,5.1,58,0.00,,,0.00,WUHU216HW,2013-04-16 17:43:00,
2013-04-16 13:48:00,81.0,65.4,30.18,SE,135,2.7,5.1,59,0.00,,,0.00,WUHU216HW,2013-04-16 17:48:00,
2013-04-16 13:53:00,81.2,66.0,30.18,SE,135,3.1,3.1,60,0.00,,,0.00,WUHU216HW,2013-04-16 17:53:00,
2013-04-16 13:58:00,81.7,64.9,30.18,SSW,203,4.0,4.0,57,0.00,,,0.00,WUHU216HW,2013-04-16 17:58:00,
2013-04-16 14:03:00,81.4,64.6,30.18,ENE,68,1.1,4.7,57,0.00,,,0.00,WUHU216HW,2013-04-16 18:03:00,
2013-04-16 14:08:00,81.2,65.0,30.18,ESE,113,1.1,4.7,58,0.00,,,0.00,WUHU216HW,2013-04-16 18:08:00,
2013-04-16 14:13:00,80.8,65.2,30.18,SE,135,3.4,4.3,59,0.00,,,0.00,WUHU216HW,2013-04-16 18:13:00,
2013-04-16 14:18:00,80.6,65.0,30.18,SE,135,2.5,4.3,59,0.00,,,0.00,WUHU216HW,2013-04-16 18:18:00,
2013-04-16 14:23:00,82.1,66.3,30.18,ESE,113,3.4,3.8,59,0.00,,,0.00,WUHU216HW,2013-04-16 18:23:00,
2013-04-16 14:28:00,83.2,65.3,30.18,WNW,293,0.7,6.7,55,0.00,,,0.00,WUHU216HW,2013-04-16 18:28:00,
2013-04-16 14:33:00,83.9,67.1,30.18,ESE,113,6.9,7.8,57,0.00,,,0.00,WUHU216HW,2013-04-16 18:33:00,
2013-04-16 14:38:00,83.7,65.3,30.18,ENE,68,1.8,7.8,54,0.00,,,0.00,WUHU216HW,2013-04-16 18:38:00,
2013-04-16 14:43:00,82.4,65.1,30.18,NNE,23,1.8,4.3,56,0.00,,,0.00,WUHU216HW,2013-04-16 18:43:00,
2013-04-16 14:48:00,82.3,64.9,30.18,NNE,23,1.8,4.3,56,0.00,,,0.00,WUHU216HW,2013-04-16 18:48:00,
2013-04-16 14:53:00,82.4,65.6,30.17,SE,135,2.0,3.4,57,0.00,,,0.00,WUHU216HW,2013-04-16 18:53:00,
2013-04-16 14:58:00,83.2,64.7,30.17,NE,45,3.8,4.5,54,0.00,,,0.00,WUHU216HW,2013-04-16 18:58:00,
2013-04-16 15:03:00,83.9,66.0,30.17,ESE,113,3.6,4.5,55,0.00,,,0.00,WUHU216HW,2013-04-16 19:03:00,
2013-04-16 15:08:00,83.9,64.9,30.17,SE,135,2.5,7.2,53,0.00,,,0.00,WUHU216HW,2013-04-16 19:08:00,
2013-04-16 15:13:00,84.1,65.6,30.17,SE,135,6.7,7.4,54,0.00,,,0.00,WUHU216HW,2013-04-16 19:13:00,
2013-04-16 15:18:00,83.9,63.9,30.17,East,90,4.9,7.4,51,0.00,,,0.00,WUHU216HW,2013-04-16 19:18:00,
2013-04-16 15:23:00,83.5,64.5,30.17,SSE,158,3.8,5.6,53,0.00,,,0.00,WUHU216HW,2013-04-16 19:23:00,
2013-04-16 15:29:00,83.2,64.7,30.17,ESE,113,0.4,5.6,54,0.00,,,0.00,WUHU216HW,2013-04-16 19:29:00,
2013-04-16 15:34:00,82.8,64.9,30.17,NNE,23,1.1,6.3,55,0.00,,,0.00,WUHU216HW,2013-04-16 19:34:00,
2013-04-16 15:39:00,82.6,64.7,30.17,NE,45,1.8,6.3,55,0.00,,,0.00,WUHU216HW,2013-04-16 19:39:00,
2013-04-16 15:44:00,82.1,64.2,30.17,NE,45,2.0,9.2,55,0.00,,,0.00,WUHU216HW,2013-04-16 19:44:00,
2013-04-16 15:49:00,81.5,64.8,30.17,SE,135,1.8,9.2,57,0.00,,,0.00,WUHU216HW,2013-04-16 19:49:00,
2013-04-16 15:54:00,81.5,64.3,30.17,ENE,68,1.1,3.4,56,0.00,,,0.00,WUHU216HW,2013-04-16 19:54:00,
2013-04-16 15:59:00,82.1,64.7,30.17,NE,45,4.9,4.9,56,0.00,,,0.00,WUHU216HW,2013-04-16 19:59:00,
2013-04-16 16:04:00,83.0,65.1,30.17,ENE,68,4.3,6.3,55,0.00,,,0.00,WUHU216HW,2013-04-16 20:04:00,
2013-04-16 16:09:00,83.2,65.3,30.17,ENE,68,1.6,6.3,55,0.00,,,0.00,WUHU216HW,2013-04-16 20:09:00,
2013-04-16 16:14:00,83.2,65.3,30.17,ESE,113,3.6,9.4,55,0.00,,,0.00,WUHU216HW,2013-04-16 20:14:00,
2013-04-16 16:19:00,83.2,65.3,30.17,East,90,1.8,9.4,55,0.00,,,0.00,WUHU216HW,2013-04-16 20:19:00,
2013-04-16 16:24:00,83.2,65.8,30.16,NNE,23,4.3,6.0,56,0.00,,,0.00,WUHU216HW,2013-04-16 20:24:00,
2013-04-16 16:29:00,82.8,64.9,30.17,SE,135,7.2,8.1,55,0.00,,,0.00,WUHU216HW,2013-04-16 20:29:00,
2013-04-16 16:34:00,81.4,65.2,30.16,ESE,113,3.1,9.6,58,0.00,,,0.00,WUHU216HW,2013-04-16 20:34:00,
2013-04-16 16:39:00,81.4,65.2,30.16,SE,135,4.3,9.6,58,0.00,,,0.00,WUHU216HW,2013-04-16 20:39:00,
2013-04-16 16:44:00,81.5,64.8,30.16,North,0,4.9,5.4,57,0.00,,,0.00,WUHU216HW,2013-04-16 20:44:00,
2013-04-16 16:49:00,81.5,64.8,30.16,SE,135,4.3,5.4,57,0.00,,,0.00,WUHU216HW,2013-04-16 20:49:00,
2013-04-16 16:54:00,81.5,65.3,30.16,ESE,113,3.4,4.7,58,0.00,,,0.00,WUHU216HW,2013-04-16 20:54:00,
2013-04-16 16:59:00,81.5,64.8,30.16,South,180,1.6,4.7,57,0.00,,,0.00,WUHU216HW,2013-04-16 20:59:00,
2013-04-16 17:04:00,81.4,64.6,30.16,South,180,6.5,6.7,57,0.00,,,0.00,WUHU216HW,2013-04-16 21:04:00,
2013-04-16 17:09:00,81.2,65.0,30.16,SE,135,5.6,6.7,58,0.00,,,0.00,WUHU216HW,2013-04-16 21:09:00,
2013-04-16 17:14:00,81.2,65.0,30.17,East,90,2.7,8.5,58,0.00,,,0.00,WUHU216HW,2013-04-16 21:14:00,
2013-04-16 17:19:00,80.6,64.0,30.17,ESE,113,1.8,8.5,57,0.00,,,0.00,WUHU216HW,2013-04-16 21:19:00,
2013-04-16 17:24:00,80.1,64.0,30.17,NE,45,2.7,4.0,58,0.00,,,0.00,WUHU216HW,2013-04-16 21:24:00,
2013-04-16 17:29:00,79.9,64.4,30.17,East,90,1.3,4.0,59,0.00,,,0.00,WUHU216HW,2013-04-16 21:29:00,
2013-04-16 17:34:00,79.7,64.2,30.17,SE,135,4.7,4.9,59,0.00,,,0.00,WUHU216HW,2013-04-16 21:34:00,
2013-04-16 17:39:00,79.7,64.2,30.17,NE,45,2.0,5.8,59,0.00,,,0.00,WUHU216HW,2013-04-16 21:39:00,
2013-04-16 17:44:00,79.6,64.0,30.17,NE,45,1.3,6.5,59,0.00,,,0.00,WUHU216HW,2013-04-16 21:44:00,
2013-04-16 17:49:00,79.0,64.1,30.17,NNE,23,1.8,6.5,60,0.00,,,0.00,WUHU216HW,2013-04-16 21:49:00,
2013-04-16 17:54:00,78.7,64.2,30.17,South,180,2.2,6.9,61,0.00,,,0.00,WUHU216HW,2013-04-16 21:54:00,
2013-04-16 17:59:00,78.1,64.1,30.18,East,90,1.8,6.9,62,0.00,,,0.00,WUHU216HW,2013-04-16 21:59:00,
2013-04-16 18:04:00,77.8,63.7,30.17,SSE,158,5.4,5.4,62,0.00,,,0.00,WUHU216HW,2013-04-16 22:04:00,
2013-04-16 18:09:00,77.8,63.7,30.17,SE,135,2.5,5.4,62,0.00,,,0.00,WUHU216HW,2013-04-16 22:09:00,
2013-04-16 18:14:00,77.8,64.2,30.17,SSE,158,4.5,4.5,63,0.00,,,0.00,WUHU216HW,2013-04-16 22:14:00,
2013-04-16 18:19:00,77.8,64.2,30.17,SE,135,1.8,5.4,63,0.00,,,0.00,WUHU216HW,2013-04-16 22:19:00,
2013-04-16 18:24:00,77.6,64.0,30.17,SSE,158,2.2,5.4,63,0.00,,,0.00,WUHU216HW,2013-04-16 22:24:00,
2013-04-16 18:29:00,77.8,63.7,30.17,ENE,68,4.9,5.4,62,0.00,,,0.00,WUHU216HW,2013-04-16 22:29:00,
2013-04-16 18:34:00,77.6,63.6,30.17,ESE,113,4.0,5.6,62,0.00,,,0.00,WUHU216HW,2013-04-16 22:34:00,
2013-04-16 18:39:00,77.4,63.4,30.17,ESE,113,3.1,5.6,62,0.00,,,0.00,WUHU216HW,2013-04-16 22:39:00,
2013-04-16 18:44:00,77.2,63.2,30.17,ENE,68,1.6,7.6,62,0.00,,,0.00,WUHU216HW,2013-04-16 22:44:00,
2013-04-16 18:49:00,77.0,63.0,30.17,East,90,1.1,7.6,62,0.00,,,0.00,WUHU216HW,2013-04-16 22:49:00,
2013-04-16 18:54:00,76.9,62.8,30.18,ESE,113,3.1,3.1,62,0.00,,,0.00,WUHU216HW,2013-04-16 22:54:00,
2013-04-16 18:59:00,76.7,62.6,30.18,ESE,113,3.6,4.3,62,0.00,,,0.00,WUHU216HW,2013-04-16 22:59:00,
2013-04-16 19:04:00,76.3,62.8,30.18,SE,135,3.4,5.1,63,0.00,,,0.00,WUHU216HW,2013-04-16 23:04:00,
2013-04-16 19:09:00,76.0,62.5,30.18,SSE,158,1.1,5.1,63,0.00,,,0.00,WUHU216HW,2013-04-16 23:09:00,
2013-04-16 19:14:00,75.8,62.3,30.17,NE,45,1.1,4.7,63,0.00,,,0.00,WUHU216HW,2013-04-16 23:14:00,
2013-04-16 19:19:00,75.6,62.6,30.18,ESE,113,0.9,2.9,64,0.00,,,0.00,WUHU216HW,2013-04-16 23:19:00,
2013-04-16 19:24:00,75.4,62.4,30.17,East,90,2.2,2.2,64,0.00,,,0.00,WUHU216HW,2013-04-16 23:24:00,
2013-04-16 19:29:00,75.1,61.6,30.18,SE,135,3.4,3.4,63,0.00,,,0.00,WUHU216HW,2013-04-16 23:29:00,
2013-04-16 19:34:00,74.7,61.7,30.18,ESE,113,2.0,3.4,64,0.00,,,0.00,WUHU216HW,2013-04-16 23:34:00,
2013-04-16 19:39:00,74.5,61.6,30.18,ENE,68,1.8,2.5,64,0.00,,,0.00,WUHU216HW,2013-04-16 23:39:00,
2013-04-16 19:44:00,74.2,61.2,30.18,ESE,113,0.4,3.8,64,0.00,,,0.00,WUHU216HW,2013-04-16 23:44:00,
2013-04-16 19:49:00,73.8,60.9,30.18,East,90,0.4,3.8,64,0.00,,,0.00,WUHU216HW,2013-04-16 23:49:00,
2013-04-16 19:54:00,73.6,60.7,30.18,East,90,0.0,2.7,64,0.00,,,0.00,WUHU216HW,2013-04-16 23:54:00,
2013-04-16 19:59:00,73.3,60.8,30.18,East,90,0.0,0.7,65,0.00,,,0.00,WUHU216HW,2013-04-16 23:59:00,
2013-04-16 20:04:00,73.1,60.6,30.18,East,90,0.0,0.0,65,0.00,,,0.00,WUHU216HW,2013-04-17 00:04:00,
2013-04-16 20:09:00,72.9,60.4,30.18,NE,45,0.0,1.1,65,0.00,,,0.00,WUHU216HW,2013-04-17 00:09:00,
2013-04-16 20:14:00,72.5,60.5,30.19,NE,45,0.4,1.1,66,0.00,,,0.00,WUHU216HW,2013-04-17 00:14:00,
2013-04-16 20:19:00,72.4,60.3,30.19,NE,45,0.2,1.1,66,0.00,,,0.00,WUHU216HW,2013-04-17 00:19:00,
2013-04-16 20:24:00,72.2,60.2,30.19,NE,45,0.0,1.1,66,0.00,,,0.00,WUHU216HW,2013-04-17 00:24:00,
2013-04-16 20:29:00,71.6,60.1,30.19,NE,45,0.4,0.7,67,0.00,,,0.00,WUHU216HW,2013-04-17 00:29:00,
2013-04-16 20:34:00,71.5,59.5,30.19,ENE,68,0.9,1.6,66,0.00,,,0.00,WUHU216HW,2013-04-17 00:34:00,
2013-04-16 20:39:00,71.3,59.8,30.19,NE,45,0.4,1.6,67,0.00,,,0.00,WUHU216HW,2013-04-17 00:39:00,
2013-04-16 20:44:00,70.9,59.9,30.19,ENE,68,0.4,1.1,68,0.00,,,0.00,WUHU216HW,2013-04-17 00:44:00,
2013-04-16 20:49:00,70.7,60.0,30.19,ENE,68,0.0,1.1,69,0.00,,,0.00,WUHU216HW,2013-04-17 00:49:00,
2013-04-16 20:54:00,70.6,59.9,30.20,East,90,0.0,1.1,69,0.00,,,0.00,WUHU216HW,2013-04-17 00:54:00,
2013-04-16 20:59:00,70.2,59.9,30.20,ENE,68,0.0,0.7,70,0.00,,,0.00,WUHU216HW,2013-04-17 00:59:00,
2013-04-16 21:04:00,70.2,60.3,30.20,ENE,68,1.1,1.1,71,0.00,,,0.00,WUHU216HW,2013-04-17 01:04:00,
2013-04-16 21:09:00,69.8,59.9,30.20,ENE,68,0.0,1.1,71,0.00,,,0.00,WUHU216HW,2013-04-17 01:09:00,
2013-04-16 21:14:00,69.7,60.2,30.21,ENE,68,0.4,0.7,72,0.00,,,0.00,WUHU216HW,2013-04-17 01:14:00,
2013-04-16 21:19:00,69.5,60.4,30.21,ENE,68,1.1,1.1,73,0.00,,,0.00,WUHU216HW,2013-04-17 01:19:00,
2013-04-16 21:24:00,69.5,60.4,30.21,ENE,68,0.0,1.1,73,0.00,,,0.00,WUHU216HW,2013-04-17 01:24:00,
2013-04-16 21:29:00,69.1,60.5,30.21,ENE,68,0.7,0.7,74,0.00,,,0.00,WUHU216HW,2013-04-17 01:29:00,
2013-04-16 21:34:00,68.9,60.3,30.20,NE,45,0.0,0.9,74,0.00,,,0.00,WUHU216HW,2013-04-17 01:34:00,
2013-04-16 21:39:00,68.9,60.7,30.21,NE,45,0.9,1.1,75,0.00,,,0.00,WUHU216HW,2013-04-17 01:39:00,
2013-04-16 21:44:00,68.8,60.5,30.21,NE,45,0.4,1.1,75,0.00,,,0.00,WUHU216HW,2013-04-17 01:44:00,
2013-04-16 21:49:00,68.8,60.5,30.21,NE,45,0.7,1.1,75,0.00,,,0.00,WUHU216HW,2013-04-17 01:49:00,
2013-04-16 21:54:00,68.4,60.6,30.21,NE,45,0.4,1.1,76,0.00,,,0.00,WUHU216HW,2013-04-17 01:54:00,
2013-04-16 21:59:00,68.4,60.9,30.21,ENE,68,0.7,1.8,77,0.00,,,0.00,WUHU216HW,2013-04-17 01:59:00,
2013-04-16 22:04:00,68.0,60.6,30.21,NE,45,0.7,1.8,77,0.00,,,0.00,WUHU216HW,2013-04-17 02:04:00,
2013-04-16 22:09:00,68.0,61.0,30.21,ENE,68,1.1,1.8,78,0.00,,,0.00,WUHU216HW,2013-04-17 02:09:00,
2013-04-16 22:14:00,67.9,60.9,30.21,NE,45,0.4,1.6,78,0.00,,,0.00,WUHU216HW,2013-04-17 02:14:00,
2013-04-16 22:19:00,67.7,61.0,30.21,NE,45,0.9,1.1,79,0.00,,,0.00,WUHU216HW,2013-04-17 02:19:00,
2013-04-16 22:24:00,67.7,61.0,30.22,NE,45,0.4,1.1,79,0.00,,,0.00,WUHU216HW,2013-04-17 02:24:00,
2013-04-16 22:29:00,67.5,61.2,30.21,NE,45,0.7,1.1,80,0.00,,,0.00,WUHU216HW,2013-04-17 02:29:00,
2013-04-16 22:34:00,67.3,61.0,30.21,NE,45,0.2,0.9,80,0.00,,,0.00,WUHU216HW,2013-04-17 02:34:00,
2013-04-16 22:39:00,67.3,61.0,30.21,NE,45,0.4,0.9,80,0.00,,,0.00,WUHU216HW,2013-04-17 02:39:00,
2013-04-16 22:44:00,67.1,60.8,30.21,NE,45,0.0,0.4,80,0.00,,,0.00,WUHU216HW,2013-04-17 02:44:00,
2013-04-16 22:49:00,67.0,60.7,30.21,NE,45,0.0,0.4,80,0.00,,,0.00,WUHU216HW,2013-04-17 02:49:00,
2013-04-16 22:54:00,67.0,60.7,30.21,NE,45,0.0,0.4,80,0.00,,,0.00,WUHU216HW,2013-04-17 02:54:00,
2013-04-16 22:59:00,66.6,60.7,30.20,NE,45,0.0,0.0,81,0.00,,,0.00,WUHU216HW,2013-04-17 02:59:00,
2013-04-16 23:04:00,66.4,60.5,30.20,NE,45,0.4,1.1,81,0.00,,,0.00,WUHU216HW,2013-04-17 03:04:00,
2013-04-16 23:09:00,66.1,60.4,30.20,NE,45,0.0,1.1,82,0.00,,,0.00,WUHU216HW,2013-04-17 03:09:00,
2013-04-16 23:14:00,65.9,60.2,30.20,NE,45,0.0,0.4,82,0.00,,,0.00,WUHU216HW,2013-04-17 03:14:00,
2013-04-16 23:19:00,65.7,60.0,30.20,NE,45,0.0,0.0,82,0.00,,,0.00,WUHU216HW,2013-04-17 03:19:00,
2013-04-16 23:24:00,65.7,60.4,30.19,NE,45,0.0,0.0,83,0.00,,,0.00,WUHU216HW,2013-04-17 03:24:00,
2013-04-16 23:29:00,65.5,60.2,30.19,NE,45,0.0,0.0,83,0.00,,,0.00,WUHU216HW,2013-04-17 03:29:00,
2013-04-16 23:34:00,65.5,60.6,30.19,NNE,23,0.4,1.3,84,0.00,,,0.00,WUHU216HW,2013-04-17 03:34:00,
2013-04-16 23:39:00,65.5,60.6,30.19,NNE,23,0.4,1.3,84,0.00,,,0.00,WUHU216HW,2013-04-17 03:39:00,
2013-04-16 23:44:00,65.5,60.6,30.19,NNE,23,0.2,0.4,84,0.00,,,0.00,WUHU216HW,2013-04-17 03:44:00,
2013-04-16 23:49:00,65.3,60.4,30.19,NNE,23,0.7,0.7,84,0.00,,,0.00,WUHU216HW,2013-04-17 03:49:00,
2013-04-16 23:54:00,65.3,60.4,30.19,NNE,23,0.0,0.7,84,0.00,,,0.00,WUHU216HW,2013-04-17 03:54:00,
2013-04-16 23:59:00,65.3,60.4,30.19,NNE,23,0.0,0.7,84,0.00,,,0.00,WUHU216HW,2013-04-17 03:59:00,